首页
METAR-TAF:

METAR-TAF

机场 :

Boscombe Down, 英格兰

纬度: 51-10N, 经度: 001-45W, 海拔: 124米

当前天气观测

该预报发布于34分钟前的16:20 UTC
风速11节,风向西
温度 13°C
湿度 94%
气压 998 hPa
能见度10公里或以上
少量云层高于1000英尺
阴天层高于4000英尺

METAR: EGDM 231620Z 27011KT 9999 FEW010 OVC040 13/12 Q0998 NOSIG RMK BLU BLU

时间: 17:54 (16:54 UTC)

预报

该预报发布于3小时和4分钟前的13:50 UTC
预报有效从23日的 15点(UTC)到 23日的 18点(UTC)
风速12节,风向西
能见度10公里或以上
少量云层高于1000英尺
散云层高于2500英尺
短暂存在
从 23日的 15点(UTC)到 23日的 16点(UTC)
能見度: 7000
散云层高于1000英尺
小阵雨

TAF: EGDM 231350Z 2315/2318 28012KT 9999 FEW010 SCT025 TEMPO 2315/2316 7000 -SHRA SCT010

超过4000个机场的气象观测和天气预报(METAR&TAF报告)。

可查询的气象台以黄色和红色小点在地图上表示。

将鼠标移到小点上方,可查看气象台名称。

然后点击查看天气观测和预报。

如需切换地图:点击带黑十字的绿色按钮放大地图;点击带横线的绿色按钮缩小地图;或者点击绿色箭头查看邻近地区的地图。


METAR-TAF: